KALI/ALI METAR and TAF weather

Enter ICAO airport designator
Station Type Date Time Source
KALI METAR 2021/10/20 06:53 UTC NOAA

KALI 200653Z AUTO 06003KT 10SM CLR 19/19 A3001 RMK AO2 SLP161 T01940189 $


Station Type Date Time Source
KALI Decoded METAR 2021/10/20 06:53 UTC NOAA

ALICE INTERNATIONAL AIRPORT, TX, United States (KALI) 27-44N 098-01W 53M
Oct 20, 2021 - 02:53 AM EDT / 2021.10.20 0653 UTC
Wind: from the ENE (060 degrees) at 3 MPH (3 KT):0
Visibility: 10 mile(s):0
Sky conditions: clear
Temperature: 66.9 F (19.4 C)
Dew Point: 66.0 F (18.9 C)
Relative Humidity: 96%
Pressure (altimeter): 30.01 in. Hg (1016 hPa)
ob: KALI 200653Z AUTO 06003KT 10SM CLR 19/19 A3001 RMK AO2 SLP161 T01940189
cycle: 7

Station Type Date Time Source
KALI TAF 2021/10/20 06:22 UTC NOAA

TAF KALI 200520Z 2006/2106 VRB04KT P6SM FEW035 SCT250
TEMPO 2010/2013 3SM BR
FM201500 14009KT P6SM FEW060 FEW250

Example: see airport list